Aviation Digital Data Service (ADDS)

Output produced by TAFs form (1354 UTC 26 September 2016)
found at http://www.aviationweather.gov/adds/tafs/
 
KPOU 261140Z 2612/2712 VRB03KT P6SM SCT250 
     FM261600 19005KT P6SM SCT120 BKN250 
     FM261900 19007KT P6SM SCT050 SCT120 BKN250 
     FM270000 17008KT P6SM SCT050 BKN120 
     FM270300 18007KT 5SM -SHRA BR SCT025 OVC050 
     FM270600 19006KT 3SM -SHRA BR OVC025 
     FM270900 VRB03KT 4SM BR OVC015